Time;durP1;ratioP1;P1;durP2;ratioP2;P2;SDS_P1;SDS_P2;PMS_P1;PMS_P2;Temp;Humidity;BMP_temperature;BMP_pressure;BME280_temperature;BME280_humidity;BME280_pressure;Samples;Min_cycle;Max_cycle;Signal;HPM_P1;HPM_P2
2022/10/23 00:00:02;;;;;;;14.25;7.20;;;;;;;;;;6256691;22;19996;-83
2022/10/23 00:02:29;;;;;;;11.77;7.40;;;;;;;;;;6279228;22;20023;-82
2022/10/23 00:04:55;;;;;;;9.07;6.88;;;;;;;;;;6261395;22;20014;-82
2022/10/23 00:07:20;;;;;;;11.98;8.15;;;;;;;;;;6234519;22;20027;-82
2022/10/23 00:09:46;;;;;;;10.60;7.45;;;;;;;;;;6286164;22;20083;-83
2022/10/23 00:12:11;;;;;;;11.02;7.13;;;;;;;;;;6262656;22;20320;-81
2022/10/23 00:14:37;;;;;;;11.32;7.78;;;;;;;;;;6284840;22;20007;-82
2022/10/23 00:17:02;;;;;;;10.68;7.32;;;;;;;;;;6260405;22;20342;-81
2022/10/23 00:19:28;;;;;;;10.88;7.38;;;;;;;;;;6258710;22;20007;-82
2022/10/23 00:21:53;;;;;;;11.15;7.82;;;;;;;;;;6259392;22;20461;-82
2022/10/23 00:24:19;;;;;;;13.23;7.45;;;;;;;;;;6259411;22;20164;-81
2022/10/23 00:26:44;;;;;;;11.85;8.05;;;;;;;;;;6316254;22;20078;-81
2022/10/23 00:29:10;;;;;;;11.07;7.70;;;;;;;;;;6284063;22;20013;-81
2022/10/23 00:31:36;;;;;;;11.57;7.75;;;;;;;;;;6234193;22;20032;-81
2022/10/23 00:34:02;;;;;;;10.38;6.97;;;;;;;;;;6286065;22;20097;-82
2022/10/23 00:36:28;;;;;;;11.95;7.60;;;;;;;;;;6258640;22;19999;-83
2022/10/23 00:38:54;;;;;;;11.82;7.97;;;;;;;;;;6261698;22;20015;-82
2022/10/23 00:41:21;;;;;;;12.13;8.10;;;;;;;;;;6259210;22;19999;-82
2022/10/23 00:44:12;;;;;;;11.52;7.82;;;;;;;;;;6259399;22;20373;-83
2022/10/23 00:46:38;;;;;;;10.70;7.78;;;;;;;;;;6242107;22;20034;-83
2022/10/23 00:49:04;;;;;;;12.35;7.63;;;;;;;;;;6235116;22;20014;-83
2022/10/23 00:51:32;;;;;;;10.60;7.60;;;;;;;;;;6261269;22;20418;-83
2022/10/23 00:53:57;;;;;;;12.50;7.70;;;;;;;;;;6286327;22;19995;-83
2022/10/23 00:56:23;;;;;;;;;;;;;;;;;;6235632;22;20014;-83
2022/10/23 00:58:48;;;;;;;11.27;7.32;;;;;;;;;;6258807;22;19902;-82
2022/10/23 01:01:15;;;;;;;11.60;8.07;;;;;;;;;;6259097;22;20023;-83
2022/10/23 01:03:41;;;;;;;11.48;7.18;;;;;;;;;;6312377;22;20018;-82
2022/10/23 01:06:06;;;;;;;14.45;8.02;;;;;;;;;;6284606;22;20015;-82
2022/10/23 01:08:37;;;;;;;15.02;8.52;;;;;;;;;;6258592;22;20030;-82
2022/10/23 01:11:08;;;;;;;9.57;7.00;;;;;;;;;;6310687;22;20015;-82
2022/10/23 01:13:36;;;;;;;12.38;7.07;;;;;;;;;;6258192;22;20012;-82
2022/10/23 01:16:18;;;;;;;13.85;8.73;;;;;;;;;;6260382;22;19995;-82
2022/10/23 01:18:44;;;;;;;10.98;7.80;;;;;;;;;;6259387;22;20011;-82
2022/10/23 01:21:16;;;;;;;10.82;7.40;;;;;;;;;;6257924;22;20026;-83
2022/10/23 01:23:46;;;;;;;11.70;7.90;;;;;;;;;;6258278;22;20007;-82
2022/10/23 01:26:21;;;;;;;10.60;7.55;;;;;;;;;;6258322;22;20022;-82
2022/10/23 01:28:58;;;;;;;10.02;7.05;;;;;;;;;;6258757;22;20011;-84
2022/10/23 01:31:26;;;;;;;14.75;7.32;;;;;;;;;;6285058;22;20023;-84
2022/10/23 01:33:56;;;;;;;12.30;7.72;;;;;;;;;;6261165;22;20074;-82
2022/10/23 01:36:26;;;;;;;10.90;7.30;;;;;;;;;;6259206;22;20082;-82
2022/10/23 01:39:05;;;;;;;9.60;7.40;;;;;;;;;;6260148;22;20064;-82
2022/10/23 01:41:31;;;;;;;;;;;;;;;;;;6234219;22;20447;-82
2022/10/23 01:43:57;;;;;;;10.43;7.45;;;;;;;;;;6257847;22;19910;-82
2022/10/23 01:46:26;;;;;;;11.00;6.97;;;;;;;;;;6260316;22;20018;-83
2022/10/23 01:48:52;;;;;;;14.60;7.80;;;;;;;;;;6257490;22;20034;-82
2022/10/23 01:51:18;;;;;;;13.13;8.05;;;;;;;;;;6256959;22;20081;-82
2022/10/23 01:53:45;;;;;;;11.27;7.18;;;;;;;;;;6258890;22;19999;-83
2022/10/23 01:56:14;;;;;;;11.52;7.20;;;;;;;;;;6292523;22;20385;-83
2022/10/23 01:58:41;;;;;;;11.57;7.45;;;;;;;;;;6257589;22;19999;-81
2022/10/23 02:01:07;;;;;;;12.52;7.78;;;;;;;;;;6259101;22;20022;-82
2022/10/23 02:03:45;;;;;;;12.90;7.97;;;;;;;;;;6262496;22;20397;-82
2022/10/23 02:06:10;;;;;;;10.38;7.80;;;;;;;;;;6261907;22;20015;-81
2022/10/23 02:08:36;;;;;;;11.98;8.32;;;;;;;;;;6283392;22;20035;-83
2022/10/23 02:11:15;;;;;;;10.52;7.85;;;;;;;;;;6259172;22;20534;-81
2022/10/23 02:13:40;;;;;;;10.13;7.60;;;;;;;;;;6259935;22;20014;-81
2022/10/23 02:16:37;;;;;;;11.23;7.70;;;;;;;;;;6284699;22;19995;-81
2022/10/23 02:19:09;;;;;;;9.77;7.25;;;;;;;;;;6281158;22;20046;-82
2022/10/23 02:21:38;;;;;;;10.45;7.05;;;;;;;;;;6284858;22;20469;-82
2022/10/23 02:24:08;;;;;;;12.35;7.80;;;;;;;;;;6259435;22;20007;-81
2022/10/23 02:26:50;;;;;;;12.20;8.50;;;;;;;;;;6289434;22;20011;-84
2022/10/23 02:29:18;;;;;;;12.48;7.88;;;;;;;;;;6285074;22;20041;-82
2022/10/23 02:31:44;;;;;;;11.77;7.78;;;;;;;;;;6259744;22;20027;-81
2022/10/23 02:34:10;;;;;;;;;;;;;;;;;;6261125;22;20443;-84
2022/10/23 02:36:36;;;;;;;10.30;7.70;;;;;;;;;;6285271;22;19903;-82
2022/10/23 02:39:03;;;;;;;12.15;8.20;;;;;;;;;;6236650;22;20495;-83
2022/10/23 02:41:40;;;;;;;13.35;7.95;;;;;;;;;;6289988;22;20009;-83
2022/10/23 02:44:17;;;;;;;10.95;7.35;;;;;;;;;;6313464;22;20045;-82
2022/10/23 02:47:02;;;;;;;10.60;7.60;;;;;;;;;;6260252;22;20022;-82
2022/10/23 02:49:46;;;;;;;11.77;8.05;;;;;;;;;;6311897;22;20011;-81
2022/10/23 02:52:26;;;;;;;13.63;9.63;;;;;;;;;;6237424;22;20034;-82
2022/10/23 02:54:56;;;;;;;16.92;10.18;;;;;;;;;;6264512;22;20035;-83
2022/10/23 02:57:24;;;;;;;16.20;8.27;;;;;;;;;;6262314;22;20007;-82
2022/10/23 02:59:59;;;;;;;10.50;7.53;;;;;;;;;;6261256;22;20400;-83
2022/10/23 03:02:26;;;;;;;12.93;7.68;;;;;;;;;;6262759;22;20022;-82
2022/10/23 03:04:52;;;;;;;12.93;7.82;;;;;;;;;;6262654;22;20007;-84
2022/10/23 03:07:18;;;;;;;11.20;7.43;;;;;;;;;;6262474;22;20014;-82
2022/10/23 03:09:44;;;;;;;11.35;7.72;;;;;;;;;;6287520;22;20346;-81
2022/10/23 03:12:09;;;;;;;12.35;7.78;;;;;;;;;;6236380;22;20021;-82
2022/10/23 03:14:35;;;;;;;12.52;8.35;;;;;;;;;;6260731;22;20003;-82
2022/10/23 03:17:02;;;;;;;11.45;7.80;;;;;;;;;;6237397;22;20037;-82
2022/10/23 03:19:27;;;;;;;17.38;9.00;;;;;;;;;;6235574;22;19999;-82
2022/10/23 03:21:54;;;;;;;14.35;8.30;;;;;;;;;;6235711;22;20350;-82
2022/10/23 03:24:20;;;;;;;11.15;7.57;;;;;;;;;;6261268;22;19999;-82
2022/10/23 03:26:45;;;;;;;12.15;7.68;;;;;;;;;;6288125;22;20017;-81
2022/10/23 03:29:11;;;;;;;11.27;7.28;;;;;;;;;;6286874;22;20010;-82
2022/10/23 03:31:42;;;;;;;11.60;7.88;;;;;;;;;;6262648;22;20442;-82
2022/10/23 03:34:10;;;;;;;11.77;7.63;;;;;;;;;;6261530;22;20019;-83
2022/10/23 03:36:38;;;;;;;16.15;8.48;;;;;;;;;;6262015;22;20078;-83
2022/10/23 03:39:04;;;;;;;12.57;7.95;;;;;;;;;;6261603;22;20018;-83
2022/10/23 03:41:30;;;;;;;11.88;7.95;;;;;;;;;;6263018;22;20030;-83
2022/10/23 03:43:56;;;;;;;19.52;11.35;;;;;;;;;;6261423;22;20011;-82
2022/10/23 03:46:21;;;;;;;20.38;14.18;;;;;;;;;;6237929;22;20009;-83
2022/10/23 03:48:51;;;;;;;13.57;8.48;;;;;;;;;;6238794;22;20011;-83
2022/10/23 03:51:16;;;;;;;12.80;8.65;;;;;;;;;;6237862;22;20489;-83
2022/10/23 03:53:42;;;;;;;11.35;7.65;;;;;;;;;;6262929;22;20081;-83
2022/10/23 03:56:08;;;;;;;12.95;7.97;;;;;;;;;;6237408;22;19987;-83
2022/10/23 03:58:33;;;;;;;14.38;8.18;;;;;;;;;;6261399;22;20061;-82
2022/10/23 04:00:59;;;;;;;13.35;7.85;;;;;;;;;;6288750;22;20057;-82
2022/10/23 04:03:25;;;;;;;11.27;8.20;;;;;;;;;;6260841;22;20015;-82
2022/10/23 04:05:51;;;;;;;12.52;8.02;;;;;;;;;;6288102;22;20055;-83
2022/10/23 04:08:18;;;;;;;13.23;8.35;;;;;;;;;;6261248;22;20042;-82
2022/10/23 04:10:46;;;;;;;13.75;7.65;;;;;;;;;;6260594;22;20102;-82
2022/10/23 04:13:12;;;;;;;13.35;8.23;;;;;;;;;;6260170;22;20011;-82
2022/10/23 04:15:37;;;;;;;15.60;8.77;;;;;;;;;;6285867;22;20002;-81
2022/10/23 04:18:03;;;;;;;13.07;7.88;;;;;;;;;;6237847;22;20033;-81
2022/10/23 04:20:31;;;;;;;12.48;8.23;;;;;;;;;;6261748;22;20059;-82
2022/10/23 04:23:00;;;;;;;19.35;12.35;;;;;;;;;;6261087;22;20015;-81
2022/10/23 04:25:26;;;;;;;13.85;10.07;;;;;;;;;;6236194;22;20021;-81
2022/10/23 04:27:51;;;;;;;13.70;8.63;;;;;;;;;;6258844;22;20015;-82
2022/10/23 04:30:17;;;;;;;14.88;9.13;;;;;;;;;;6259124;22;19999;-80
2022/10/23 04:32:44;;;;;;;14.32;8.65;;;;;;;;;;6285907;22;20007;-82
2022/10/23 04:35:10;;;;;;;12.77;9.13;;;;;;;;;;6260592;22;20320;-82
2022/10/23 04:37:35;;;;;;;16.23;9.23;;;;;;;;;;6236256;22;20094;-83
2022/10/23 04:40:01;;;;;;;12.27;8.48;;;;;;;;;;6261326;22;19995;-83
2022/10/23 04:42:26;;;;;;;14.15;8.73;;;;;;;;;;6286132;22;20015;-81
2022/10/23 04:44:52;;;;;;;16.98;8.05;;;;;;;;;;6260533;22;20003;-82
2022/10/23 04:47:18;;;;;;;13.90;8.77;;;;;;;;;;6261325;22;20462;-82
2022/10/23 04:49:53;;;;;;;14.48;8.63;;;;;;;;;;6262517;22;20003;-82
2022/10/23 04:52:33;;;;;;;14.43;9.05;;;;;;;;;;6285628;22;20019;-81
2022/10/23 04:55:19;;;;;;;13.75;9.18;;;;;;;;;;6269648;22;20012;-84
2022/10/23 04:58:03;;;;;;;16.88;9.10;;;;;;;;;;6266433;22;20018;-82
2022/10/23 05:00:29;;;;;;;17.85;11.55;;;;;;;;;;6238248;22;20038;-81
2022/10/23 05:02:55;;;;;;;17.48;11.30;;;;;;;;;;6287347;22;20354;-81
2022/10/23 05:05:21;;;;;;;14.90;9.70;;;;;;;;;;6239177;22;20015;-83
2022/10/23 05:08:07;;;;;;;16.35;9.38;;;;;;;;;;6234712;22;19998;-83
2022/10/23 05:10:51;;;;;;;16.25;9.68;;;;;;;;;;6296578;22;20030;-83
2022/10/23 05:13:18;;;;;;;15.00;9.32;;;;;;;;;;6266395;22;20007;-83
2022/10/23 05:15:47;;;;;;;17.80;8.98;;;;;;;;;;6262389;22;20004;-83
2022/10/23 05:18:17;;;;;;;16.02;9.48;;;;;;;;;;6237634;22;20077;-83
2022/10/23 05:20:42;;;;;;;14.27;8.93;;;;;;;;;;6263582;22;19999;-82
2022/10/23 05:23:09;;;;;;;13.85;8.95;;;;;;;;;;6262644;22;20011;-82
2022/10/23 05:25:38;;;;;;;13.65;9.23;;;;;;;;;;6242197;22;20320;-85
2022/10/23 05:28:16;;;;;;;15.63;8.95;;;;;;;;;;6294849;22;20038;-84
2022/10/23 05:30:42;;;;;;;14.98;9.65;;;;;;;;;;6241210;22;20454;-84
2022/10/23 05:33:07;;;;;;;18.20;9.55;;;;;;;;;;6243169;22;20003;-83
2022/10/23 05:35:37;;;;;;;16.38;9.30;;;;;;;;;;6267527;22;20006;-84
2022/10/23 05:38:03;;;;;;;15.48;9.77;;;;;;;;;;6244191;22;20041;-81
2022/10/23 05:40:33;;;;;;;18.75;10.13;;;;;;;;;;6319897;22;20026;-83
2022/10/23 05:43:03;;;;;;;16.42;9.75;;;;;;;;;;6264971;22;20003;-83
2022/10/23 05:45:51;;;;;;;17.35;10.60;;;;;;;;;;6290623;22;20066;-83
2022/10/23 05:48:25;;;;;;;15.32;10.10;;;;;;;;;;6269574;22;20117;-84
2022/10/23 05:51:21;;;;;;;14.30;9.73;;;;;;;;;;6216833;23;20024;-87
2022/10/23 05:53:58;;;;;;;15.18;10.38;;;;;;;;;;6206433;23;20008;-84
2022/10/23 05:56:43;;;;;;;21.25;10.95;;;;;;;;;;6279359;22;20397;-84
2022/10/23 05:59:19;;;;;;;14.02;9.80;;;;;;;;;;6252283;22;20011;-84
2022/10/23 06:01:51;;;;;;;17.33;9.80;;;;;;;;;;6272876;22;20069;-85
2022/10/23 06:04:28;;;;;;;16.35;10.75;;;;;;;;;;6270100;22;20011;-84
2022/10/23 06:07:25;;;;;;;;;;;;;;;;;;6164556;23;20017;-84
2022/10/23 06:09:53;;;;;;;19.35;11.18;;;;;;;;;;6168921;22;19912;-86
2022/10/23 06:12:21;;;;;;;16.70;10.57;;;;;;;;;;6270384;22;20015;-83
2022/10/23 06:14:49;;;;;;;15.45;10.82;;;;;;;;;;6277917;22;20011;-84
2022/10/23 06:17:14;;;;;;;20.10;10.45;;;;;;;;;;6280006;22;19994;-85
2022/10/23 06:19:43;;;;;;;17.38;10.90;;;;;;;;;;6250461;22;20022;-82
2022/10/23 06:24:50;;;;;;;32.28;21.27;;;;;;;;;;6297751;22;19926;-85
2022/10/23 06:27:22;;;;;;;18.33;12.18;;;;;;;;;;6250871;22;20008;-82
2022/10/23 06:32:23;;;;;;;19.27;12.70;;;;;;;;;;6353966;22;20032;-84
2022/10/23 06:35:05;;;;;;;20.08;11.85;;;;;;;;;;6291085;22;20026;-84
2022/10/23 06:37:34;;;;;;;17.58;11.75;;;;;;;;;;6279297;22;20092;-85
2022/10/23 06:40:10;;;;;;;17.08;11.52;;;;;;;;;;6283194;22;19999;-85
2022/10/23 06:42:55;;;;;;;21.50;13.52;;;;;;;;;;6333614;22;20025;-86
2022/10/23 06:45:41;;;;;;;19.73;13.75;;;;;;;;;;6289593;22;20358;-86
2022/10/23 06:48:12;;;;;;;18.95;12.60;;;;;;;;;;6344956;22;20011;-85
2022/10/23 06:50:55;;;;;;;19.75;13.13;;;;;;;;;;6310994;22;20090;-85
2022/10/23 06:53:34;;;;;;;19.83;12.52;;;;;;;;;;6307674;22;20026;-85
2022/10/23 06:56:18;;;;;;;16.60;12.30;;;;;;;;;;6311949;22;20094;-85
2022/10/23 06:58:44;;;;;;;;;;;;;;;;;;6283285;22;20019;-84
2022/10/23 07:01:13;;;;;;;19.25;12.30;;;;;;;;;;6333997;22;19903;-84
2022/10/23 07:03:47;;;;;;;19.60;13.23;;;;;;;;;;6306137;22;20018;-87
2022/10/23 07:06:17;;;;;;;22.85;16.38;;;;;;;;;;6308635;22;20025;-85
2022/10/23 07:08:43;;;;;;;19.02;13.48;;;;;;;;;;6283026;22;19998;-85
2022/10/23 07:11:47;;;;;;;19.20;13.68;;;;;;;;;;6201163;23;20020;-85
2022/10/23 07:14:13;;;;;;;17.70;12.15;;;;;;;;;;6207798;23;20008;-86
2022/10/23 07:16:41;;;;;;;16.52;12.02;;;;;;;;;;6257921;22;20441;-86
2022/10/23 07:19:12;;;;;;;18.85;12.43;;;;;;;;;;6309332;22;20011;-84
2022/10/23 07:21:57;;;;;;;18.70;12.82;;;;;;;;;;6297238;22;20010;-82
2022/10/23 07:24:37;;;;;;;17.30;11.75;;;;;;;;;;6312555;22;20070;-85
2022/10/23 07:27:18;;;;;;;17.90;11.57;;;;;;;;;;6289972;22;20058;-87
2022/10/23 07:29:50;;;;;;;20.63;13.30;;;;;;;;;;6306344;22;20011;-86
2022/10/23 07:32:18;;;;;;;17.38;13.18;;;;;;;;;;6310152;22;20048;-85
2022/10/23 07:35:02;;;;;;;21.25;13.20;;;;;;;;;;6314078;22;20176;-86
2022/10/23 07:37:31;;;;;;;18.48;12.88;;;;;;;;;;6283451;22;20010;-84
2022/10/23 07:39:59;;;;;;;14.57;9.93;;;;;;;;;;6284321;22;20058;-86
2022/10/23 07:42:28;;;;;;;19.50;12.27;;;;;;;;;;6282921;22;20018;-87
2022/10/23 07:44:54;;;;;;;18.13;12.88;;;;;;;;;;6310545;22;19979;-86
2022/10/23 07:47:22;;;;;;;17.20;12.32;;;;;;;;;;6281955;22;19991;-87
2022/10/23 07:49:49;;;;;;;15.45;11.65;;;;;;;;;;6310444;22;19986;-84
2022/10/23 07:52:18;;;;;;;17.13;11.55;;;;;;;;;;6284988;22;20018;-87
2022/10/23 07:55:16;;;;;;;16.33;11.63;;;;;;;;;;6326043;22;19991;-87
2022/10/23 07:57:49;;;;;;;15.63;11.50;;;;;;;;;;6309775;22;20135;-86
2022/10/23 08:00:57;;;;;;;15.65;11.27;;;;;;;;;;6277830;22;19995;-85
2022/10/23 08:03:30;;;;;;;15.88;11.00;;;;;;;;;;6313208;22;20074;-85
2022/10/23 08:06:00;;;;;;;17.08;12.48;;;;;;;;;;6336862;22;20007;-86
2022/10/23 08:11:04;;;;;;;19.25;12.80;;;;;;;;;;6298896;22;20030;-86
2022/10/23 08:13:42;;;;;;;;;;;;;;;;;;6250238;22;20039;-83
2022/10/23 08:16:08;;;;;;;14.35;11.00;;;;;;;;;;6268691;22;19907;-85
2022/10/23 08:18:52;;;;;;;15.07;11.35;;;;;;;;;;6271674;22;20026;-85
2022/10/23 08:21:18;;;;;;;;;;;;;;;;;;6267805;22;20008;-84
2022/10/23 08:23:44;;;;;;;15.35;10.77;;;;;;;;;;6269219;22;19904;-84
2022/10/23 08:26:09;;;;;;;;;;;;;;;;;;6246186;22;20011;-84
2022/10/23 08:33:58;;;;;;;14.18;9.73;;;;;;;;;;6317058;22;20034;-84
2022/10/23 08:36:24;;;;;;;13.02;10.32;;;;;;;;;;6251394;22;20023;-85
2022/10/23 08:38:54;;;;;;;15.35;10.35;;;;;;;;;;6277323;22;19995;-83
2022/10/23 08:41:22;;;;;;;13.52;10.07;;;;;;;;;;6248773;22;20066;-85
2022/10/23 08:44:11;;;;;;;13.35;9.77;;;;;;;;;;6278583;22;19999;-85
2022/10/23 08:46:41;;;;;;;12.98;9.70;;;;;;;;;;6276433;22;20008;-83
2022/10/23 08:49:36;;;;;;;15.05;10.82;;;;;;;;;;6286111;22;20016;-84
2022/10/23 08:52:27;;;;;;;15.38;11.10;;;;;;;;;;6298869;22;20015;-85
2022/10/23 08:55:04;;;;;;;13.85;10.90;;;;;;;;;;6280361;22;20019;-85
2022/10/23 08:57:34;;;;;;;13.63;10.77;;;;;;;;;;6273806;22;20157;-85
2022/10/23 09:00:00;;;;;;;14.30;10.02;;;;;;;;;;6277256;22;19995;-86
2022/10/23 09:02:27;;;;;;;12.65;9.82;;;;;;;;;;6302814;22;20011;-85
2022/10/23 09:04:53;;;;;;;12.73;9.95;;;;;;;;;;6278903;22;20003;-85
2022/10/23 09:07:19;;;;;;;;;;;;;;;;;;6255067;22;20098;-84
2022/10/23 09:09:54;;;;;;;14.07;9.82;;;;;;;;;;6306561;22;19895;-84
2022/10/23 09:12:20;;;;;;;14.40;10.05;;;;;;;;;;6278944;22;20090;-84
2022/10/23 09:14:52;;;;;;;11.02;8.32;;;;;;;;;;6277577;22;20010;-84
2022/10/23 09:17:18;;;;;;;14.32;10.02;;;;;;;;;;6303461;22;20411;-85
2022/10/23 09:19:50;;;;;;;13.93;10.50;;;;;;;;;;6303845;22;19998;-85
2022/10/23 09:22:15;;;;;;;13.52;9.80;;;;;;;;;;6278727;22;20019;-85
2022/10/23 09:24:43;;;;;;;15.80;10.82;;;;;;;;;;6305419;22;19996;-85
2022/10/23 09:27:13;;;;;;;15.70;10.25;;;;;;;;;;6279004;22;20412;-84
2022/10/23 09:29:45;;;;;;;13.27;10.23;;;;;;;;;;6306818;22;20011;-86
2022/10/23 09:32:11;;;;;;;16.30;10.23;;;;;;;;;;6281188;22;20358;-84
2022/10/23 09:34:37;;;;;;;15.23;11.05;;;;;;;;;;6277801;22;20019;-84
2022/10/23 09:37:17;;;;;;;13.25;9.90;;;;;;;;;;6279960;22;20017;-85
2022/10/23 09:39:47;;;;;;;15.77;10.93;;;;;;;;;;6279899;22;20011;-86
2022/10/23 09:42:14;;;;;;;14.98;11.02;;;;;;;;;;6255407;22;20050;-86
2022/10/23 09:44:49;;;;;;;14.38;10.63;;;;;;;;;;6306729;22;20011;-85
2022/10/23 09:47:20;;;;;;;13.77;9.80;;;;;;;;;;6280705;22;20020;-85
2022/10/23 09:49:47;;;;;;;14.57;10.60;;;;;;;;;;6255646;22;20015;-85
2022/10/23 09:52:16;;;;;;;14.40;10.60;;;;;;;;;;6255229;22;20411;-84
2022/10/23 09:54:46;;;;;;;15.18;10.50;;;;;;;;;;6305069;22;20011;-85
2022/10/23 09:57:23;;;;;;;15.35;10.57;;;;;;;;;;6278990;22;20034;-84
2022/10/23 09:59:49;;;;;;;15.60;10.15;;;;;;;;;;6279637;22;20007;-84
2022/10/23 10:02:23;;;;;;;13.48;9.80;;;;;;;;;;6277911;22;20074;-83
2022/10/23 10:05:24;;;;;;;11.57;9.02;;;;;;;;;;6285664;22;20077;-86
2022/10/23 10:08:12;;;;;;;13.13;9.02;;;;;;;;;;6277170;22;20327;-85
2022/10/23 10:10:40;;;;;;;13.00;8.70;;;;;;;;;;6275840;22;20419;-86
2022/10/23 10:13:13;;;;;;;11.13;7.80;;;;;;;;;;6305101;22;20006;-84
2022/10/23 10:15:52;;;;;;;11.05;8.32;;;;;;;;;;6249765;22;20041;-85
2022/10/23 10:18:47;;;;;;;12.40;8.45;;;;;;;;;;6280028;22;19988;-84
2022/10/23 10:22:03;;;;;;;9.52;7.07;;;;;;;;;;6324798;22;20094;-85
2022/10/23 10:24:31;;;;;;;12.52;7.78;;;;;;;;;;6241329;22;20022;-85
2022/10/23 10:27:07;;;;;;;10.77;8.15;;;;;;;;;;6278251;22;20026;-86
2022/10/23 10:29:56;;;;;;;14.77;7.63;;;;;;;;;;6277601;22;20058;-85
2022/10/23 10:32:37;;;;;;;11.98;8.65;;;;;;;;;;6277194;22;20018;-85
2022/10/23 10:35:29;;;;;;;15.60;10.45;;;;;;;;;;6306870;22;20538;-86
2022/10/23 10:38:20;;;;;;;14.25;8.93;;;;;;;;;;6309104;22;20011;-87
2022/10/23 10:41:15;;;;;;;17.10;12.52;;;;;;;;;;6334108;22;20019;-86
2022/10/23 10:51:52;;;;;;;10.25;6.85;;;;;;;;;;6285693;22;20034;-87
2022/10/23 10:54:19;;;;;;;8.30;6.53;;;;;;;;;;6298881;22;19987;-86
2022/10/23 10:56:45;;;;;;;8.80;6.82;;;;;;;;;;6299828;22;20004;-86
2022/10/23 10:59:25;;;;;;;10.35;7.50;;;;;;;;;;6274111;22;20003;-86
2022/10/23 11:01:51;;;;;;;8.48;6.88;;;;;;;;;;6276878;22;20011;-86
2022/10/23 11:04:36;;;;;;;10.70;7.03;;;;;;;;;;6302686;22;20006;-87
2022/10/23 11:07:05;;;;;;;17.92;12.43;;;;;;;;;;6300761;22;20019;-87
2022/10/23 11:09:31;;;;;;;9.10;6.85;;;;;;;;;;6250614;22;19999;-87
2022/10/23 11:14:32;;;;;;;10.52;7.57;;;;;;;;;;6354183;22;19898;-85
2022/10/23 11:17:23;;;;;;;8.63;6.97;;;;;;;;;;6282117;22;20037;-86
2022/10/23 11:20:20;;;;;;;9.27;7.43;;;;;;;;;;6334099;22;20017;-86
2022/10/23 11:22:46;;;;;;;9.35;7.25;;;;;;;;;;6307494;22;20006;-86
2022/10/23 11:25:13;;;;;;;10.57;6.68;;;;;;;;;;6360359;22;19995;-87
2022/10/23 11:27:46;;;;;;;9.65;6.90;;;;;;;;;;6309990;22;19999;-86
2022/10/23 11:30:17;;;;;;;9.88;7.55;;;;;;;;;;6284686;22;20012;-86
2022/10/23 11:33:02;;;;;;;8.95;7.03;;;;;;;;;;6336999;22;20023;-87
2022/10/23 11:35:37;;;;;;;8.45;6.72;;;;;;;;;;6309289;22;20013;-86
2022/10/23 11:38:28;;;;;;;8.80;6.95;;;;;;;;;;6337096;22;19994;-86
2022/10/23 11:40:56;;;;;;;10.07;7.10;;;;;;;;;;6296051;22;20018;-85
2022/10/23 11:46:11;;;;;;;9.80;7.47;;;;;;;;;;6363841;22;20037;-86
2022/10/23 11:48:38;;;;;;;9.73;6.90;;;;;;;;;;6313224;22;20006;-87
2022/10/23 11:51:04;;;;;;;10.13;7.13;;;;;;;;;;6308632;22;20014;-86
2022/10/23 11:53:30;;;;;;;9.57;7.50;;;;;;;;;;6281207;22;19987;-85
2022/10/23 11:56:05;;;;;;;9.93;6.70;;;;;;;;;;6357441;22;19998;-86
2022/10/23 11:58:41;;;;;;;10.35;7.15;;;;;;;;;;6308299;22;20389;-84
2022/10/23 12:01:27;;;;;;;8.25;6.85;;;;;;;;;;6283613;22;20022;-86
2022/10/23 12:03:55;;;;;;;8.30;6.55;;;;;;;;;;6308543;22;20072;-86
2022/10/23 12:06:27;;;;;;;11.13;7.35;;;;;;;;;;6311147;22;20006;-86
2022/10/23 12:12:07;;;;;;;11.40;7.35;;;;;;;;;;6362153;22;20037;-85
2022/10/23 12:14:40;;;;;;;8.23;6.63;;;;;;;;;;6334509;22;20009;-86
2022/10/23 12:17:36;;;;;;;9.10;6.82;;;;;;;;;;6307321;22;20070;-84
2022/10/23 12:20:11;;;;;;;11.10;7.57;;;;;;;;;;6267589;22;20015;-84
2022/10/23 12:22:55;;;;;;;10.18;7.82;;;;;;;;;;6309149;22;20003;-85
2022/10/23 12:26:09;;;;;;;9.05;7.22;;;;;;;;;;6330640;22;20393;-83
2022/10/23 12:28:36;;;;;;;11.45;8.25;;;;;;;;;;6303960;22;20015;-83
2022/10/23 12:31:07;;;;;;;9.52;7.88;;;;;;;;;;6300608;22;20011;-83
2022/10/23 12:33:39;;;;;;;10.45;6.72;;;;;;;;;;6275753;22;20015;-84
2022/10/23 12:36:14;;;;;;;8.90;7.18;;;;;;;;;;6358027;22;20006;-85
2022/10/23 12:38:43;;;;;;;9.63;6.78;;;;;;;;;;6331905;22;20086;-86
2022/10/23 12:41:09;;;;;;;8.35;6.60;;;;;;;;;;6255625;22;20048;-84
2022/10/23 12:43:35;;;;;;;;;;;;;;;;;;6327036;22;20019;-84
2022/10/23 12:48:49;;;;;;;10.80;7.40;;;;;;;;;;6349785;22;20033;-84
2022/10/23 12:51:19;;;;;;;10.82;7.57;;;;;;;;;;6301834;22;20010;-83
2022/10/23 12:53:47;;;;;;;11.70;8.38;;;;;;;;;;6297330;22;20015;-82
2022/10/23 12:56:16;;;;;;;16.85;12.60;;;;;;;;;;6304346;22;20007;-85
2022/10/23 12:58:47;;;;;;;11.95;8.20;;;;;;;;;;6310681;22;20014;-81
2022/10/23 13:01:19;;;;;;;10.85;7.80;;;;;;;;;;6301308;22;20033;-82
2022/10/23 13:03:45;;;;;;;14.38;9.82;;;;;;;;;;6275810;22;20014;-83
2022/10/23 13:06:11;;;;;;;12.25;9.23;;;;;;;;;;6302524;22;20423;-85
2022/10/23 13:08:41;;;;;;;11.48;7.43;;;;;;;;;;6274688;22;20010;-84
2022/10/23 13:11:29;;;;;;;9.68;7.07;;;;;;;;;;6327634;22;19999;-86
2022/10/23 13:14:00;;;;;;;11.23;7.80;;;;;;;;;;6302323;22;20018;-83
2022/10/23 13:16:26;;;;;;;9.43;6.97;;;;;;;;;;6273681;22;20002;-84
2022/10/23 13:18:53;;;;;;;7.78;6.30;;;;;;;;;;6298300;22;20010;-84
2022/10/23 13:21:25;;;;;;;8.88;7.00;;;;;;;;;;6298688;22;20033;-84
2022/10/23 13:23:51;;;;;;;8.07;6.10;;;;;;;;;;6273172;22;20015;-83
2022/10/23 13:26:43;;;;;;;7.55;6.18;;;;;;;;;;6303815;22;20006;-85
2022/10/23 13:29:28;;;;;;;8.00;5.68;;;;;;;;;;6304886;22;20015;-81
2022/10/23 13:31:53;;;;;;;9.13;6.05;;;;;;;;;;6300065;22;20488;-84
2022/10/23 13:34:23;;;;;;;8.30;5.57;;;;;;;;;;6270632;22;19999;-85
2022/10/23 13:36:57;;;;;;;9.30;5.63;;;;;;;;;;6298442;22;20007;-85
2022/10/23 13:39:24;;;;;;;7.93;5.72;;;;;;;;;;6270974;22;20097;-83
2022/10/23 13:41:50;;;;;;;10.23;7.55;;;;;;;;;;6296490;22;20048;-83
2022/10/23 13:44:17;;;;;;;9.30;6.95;;;;;;;;;;6297803;22;20037;-84
2022/10/23 13:46:43;;;;;;;9.55;6.70;;;;;;;;;;6273274;22;20007;-83
2022/10/23 13:49:09;;;;;;;7.93;5.93;;;;;;;;;;6323226;22;20021;-84
2022/10/23 13:51:34;;;;;;;;;;;;;;;;;;6271895;22;20106;-82
2022/10/23 13:53:59;;;;;;;6.95;5.43;;;;;;;;;;6322265;22;19907;-83
2022/10/23 13:56:41;;;;;;;8.25;5.75;;;;;;;;;;6298319;22;20353;-85
2022/10/23 13:59:07;;;;;;;6.45;5.22;;;;;;;;;;6295635;22;20535;-83
2022/10/23 14:01:34;;;;;;;;;;;;;;;;;;6296107;22;20005;-82
2022/10/23 14:03:59;;;;;;;6.55;5.20;;;;;;;;;;6320927;22;19989;-83
2022/10/23 14:06:26;;;;;;;;;;;;;;;;;;6300156;22;19999;-84
2022/10/23 14:09:00;;;;;;;7.03;5.40;;;;;;;;;;6322691;22;19907;-83
2022/10/23 14:11:26;;;;;;;7.13;5.35;;;;;;;;;;6271934;22;20002;-84
2022/10/23 14:13:51;;;;;;;6.65;4.80;;;;;;;;;;6270694;22;20014;-84
2022/10/23 14:16:17;;;;;;;;;;;;;;;;;;6298141;22;19999;-84
2022/10/23 14:18:42;;;;;;;6.75;5.32;;;;;;;;;;6326323;22;20333;-84
2022/10/23 14:21:08;;;;;;;;;;;;;;;;;;6302886;22;20334;-83
2022/10/23 14:23:33;;;;;;;7.47;5.22;;;;;;;;;;6326490;22;19918;-82
2022/10/23 14:26:06;;;;;;;7.05;5.30;;;;;;;;;;6302529;22;20002;-82
2022/10/23 14:28:31;;;;;;;11.65;8.25;;;;;;;;;;6299876;22;20021;-83
2022/10/23 14:30:57;;;;;;;7.90;5.80;;;;;;;;;;6274426;22;20062;-82
2022/10/23 14:33:22;;;;;;;;;;;;;;;;;;6304694;22;20062;-85
2022/10/23 14:35:48;;;;;;;9.13;6.72;;;;;;;;;;6298838;22;19909;-84
2022/10/23 14:38:14;;;;;;;;;;;;;;;;;;6298017;22;20017;-83
2022/10/23 14:40:39;;;;;;;9.10;6.80;;;;;;;;;;6350294;22;19985;-83
2022/10/23 14:43:05;;;;;;;7.82;5.60;;;;;;;;;;6273210;22;20089;-83
2022/10/23 14:45:31;;;;;;;7.45;5.07;;;;;;;;;;6301405;22;20341;-84
2022/10/23 14:47:56;;;;;;;6.82;5.00;;;;;;;;;;6280555;22;20082;-84
2022/10/23 14:50:22;;;;;;;7.07;5.85;;;;;;;;;;6301016;22;20018;-84
2022/10/23 14:52:47;;;;;;;;;;;;;;;;;;6300214;22;20018;-83
2022/10/23 14:55:13;;;;;;;9.55;6.80;;;;;;;;;;6354952;22;19903;-83
2022/10/23 14:57:38;;;;;;;;;;;;;;;;;;6307036;22;20476;-85
2022/10/23 15:00:10;;;;;;;9.25;6.82;;;;;;;;;;6304847;22;19902;-85
2022/10/23 15:02:37;;;;;;;8.50;6.22;;;;;;;;;;6306780;22;20019;-84
2022/10/23 15:05:04;;;;;;;9.73;6.28;;;;;;;;;;6304072;22;20084;-87
2022/10/23 15:07:30;;;;;;;9.05;6.00;;;;;;;;;;6335672;22;20030;-84
2022/10/23 15:09:57;;;;;;;10.07;6.43;;;;;;;;;;6306387;22;20011;-84
2022/10/23 15:12:23;;;;;;;7.25;5.55;;;;;;;;;;6302811;22;20022;-82
2022/10/23 15:14:48;;;;;;;7.03;5.40;;;;;;;;;;6305338;22;20461;-84
2022/10/23 15:17:14;;;;;;;7.15;5.82;;;;;;;;;;6304880;22;20017;-86
2022/10/23 15:19:41;;;;;;;5.32;4.68;;;;;;;;;;6282179;22;20002;-84
2022/10/23 15:22:06;;;;;;;7.03;5.38;;;;;;;;;;6300058;22;19998;-83
2022/10/23 15:24:32;;;;;;;;;;;;;;;;;;6271280;22;20006;-82
2022/10/23 15:26:58;;;;;;;6.80;5.28;;;;;;;;;;6325470;22;20351;-83
2022/10/23 15:29:24;;;;;;;6.43;5.13;;;;;;;;;;6297592;22;20014;-82
2022/10/23 15:31:54;;;;;;;7.63;6.30;;;;;;;;;;6275382;22;20002;-84